Country
Station

 

Weather  for  Cordova/Mile 13  -  United States    United States

  
7 °C (45 °F)
    
 
 

Current METAR for Cordova/Mile 13 is :

PACV 021253Z VRB03KT 10SM CLR 07/03 A3006 RMK AO2 SLP180 T00670033

 

This is a report for Cordova/Mile 13 - United States.
 
The report was made 33 minutes ago, at 12:53 UTC .
The wind was blowing at a speed of 1.5 meters per second (3.5 miles per hour) from variable directions.
 
The temperature was 7 °C (45 °F), with a dew-point at 3 °C (37 °F).
The atmospheric pressure was 1018 hPa (30.06 inHg).
The relative humidity was 75.6%.
 
The sky was clear.
 
The overall visibility was 16.1 kilometers (10.0 miles).
 

 
 
 
 

Country :   A   B   C   D   E   F   G   H   I   J   K   L   M   N   O   P   Q   R   S   T   U   V   W   Y   Z

 

Site Info  |  Disclaimer  |  Credits  |  Privacy
Contact us  |  Add to favorites
© 2013-2020 METARs - All rights reserved